createdAt,value
2022-07-25T00:01:49.882Z,62.39
2022-07-25T00:04:21.628Z,62.47
2022-07-25T00:06:57.906Z,62.57
2022-07-25T00:09:26.426Z,62.78
2022-07-25T00:11:57.609Z,63.03
2022-07-25T00:14:26.843Z,63.04
2022-07-25T00:16:56.415Z,63.16
2022-07-25T00:22:10.340Z,63.15
2022-07-25T00:24:38.540Z,63.51
2022-07-25T00:27:14.206Z,63.28
2022-07-25T00:29:45.417Z,63.46
2022-07-25T00:32:15.746Z,63.31
2022-07-25T00:34:46.356Z,63.07
2022-07-25T00:37:17.205Z,63.08
2022-07-25T00:39:48.577Z,62.84
2022-07-25T00:42:25.224Z,62.61
2022-07-25T00:44:56.516Z,62.61
2022-07-25T00:47:27.875Z,62.84
2022-07-25T00:50:05.567Z,62.81
2022-07-25T00:52:40.082Z,63.11
2022-07-25T00:55:15.603Z,62.84
2022-07-25T00:57:46.825Z,62.89
2022-07-25T01:00:23.496Z,62.82
2022-07-25T01:02:51.842Z,62.85
2022-07-25T01:05:23.053Z,62.95
2022-07-25T01:07:56.079Z,62.79
2022-07-25T01:10:26.630Z,62.99
2022-07-25T01:12:55.795Z,62.43
2022-07-25T01:15:35.708Z,62.34
2022-07-25T01:18:06.852Z,62.68
2022-07-25T01:20:36.900Z,62.70
2022-07-25T01:23:09.003Z,62.28
2022-07-25T01:25:41.870Z,62.46
2022-07-25T01:28:10.707Z,62.19
2022-07-25T01:30:39.622Z,62.33
2022-07-25T01:33:07.795Z,62.35
2022-07-25T01:35:43.400Z,62.66
2022-07-25T01:38:12.953Z,63.13
2022-07-25T01:40:43.703Z,63.82
2022-07-25T01:43:12.149Z,64.50
2022-07-25T01:45:40.917Z,65.54
2022-07-25T01:48:09.451Z,66.17
2022-07-25T01:50:41.745Z,66.28
2022-07-25T01:53:10.419Z,66.28
2022-07-25T01:55:38.957Z,66.41
2022-07-25T01:58:07.469Z,66.14
2022-07-25T02:00:40.239Z,66.13
2022-07-25T02:03:28.268Z,66.38
2022-07-25T02:05:58.579Z,66.43
2022-07-25T02:08:27.886Z,66.13
2022-07-25T02:10:59.001Z,65.75
2022-07-25T02:13:27.417Z,65.98
2022-07-25T02:15:56.581Z,65.93
2022-07-25T02:18:25.627Z,65.79
2022-07-25T02:20:58.936Z,65.32
2022-07-25T02:23:30.146Z,65.22
2022-07-25T02:25:59.799Z,65.41
2022-07-25T02:28:31.505Z,65.55
2022-07-25T02:31:01.564Z,65.12
2022-07-25T02:33:29.947Z,64.75
2022-07-25T02:36:04.267Z,64.73
2022-07-25T02:38:33.056Z,64.87
2022-07-25T02:41:01.128Z,64.61
2022-07-25T02:43:34.170Z,64.37
2022-07-25T02:46:03.350Z,64.44
2022-07-25T02:48:34.672Z,64.31
2022-07-25T02:51:08.315Z,64.30
2022-07-25T02:53:56.717Z,64.03
2022-07-25T02:56:29.648Z,63.86
2022-07-25T02:58:59.432Z,63.65
2022-07-25T03:01:30.620Z,63.64
2022-07-25T03:04:02.881Z,63.36
2022-07-25T03:06:36.854Z,63.58
2022-07-25T03:09:08.324Z,63.65
2022-07-25T03:11:39.762Z,63.57
2022-07-25T03:14:09.954Z,63.36
2022-07-25T03:16:41.976Z,63.45
2022-07-25T03:19:13.233Z,63.60
2022-07-25T03:21:46.456Z,64.27
2022-07-25T03:24:14.886Z,64.84
2022-07-25T03:26:44.644Z,65.85
2022-07-25T03:29:14.514Z,66.33
2022-07-25T03:31:46.252Z,66.70
2022-07-25T03:34:19.641Z,67.17
2022-07-25T03:36:51.978Z,67.22
2022-07-25T03:39:24.683Z,67.03
2022-07-25T03:41:54.243Z,67.00
2022-07-25T03:44:22.690Z,67.00
2022-07-25T03:46:52.182Z,66.84
2022-07-25T03:49:23.985Z,66.90
2022-07-25T03:51:54.874Z,66.76
2022-07-25T03:54:32.974Z,66.76
2022-07-25T03:57:01.901Z,66.60
2022-07-25T03:59:34.299Z,66.61
2022-07-25T04:02:03.430Z,66.61
2022-07-25T04:04:34.073Z,66.63
2022-07-25T04:07:08.772Z,66.70
2022-07-25T04:09:40.303Z,66.74
2022-07-25T04:12:09.875Z,66.89
2022-07-25T04:14:43.281Z,66.74
2022-07-25T04:17:15.181Z,66.93
2022-07-25T04:19:47.009Z,66.91
2022-07-25T04:22:17.834Z,66.90
2022-07-25T04:24:50.221Z,66.96
2022-07-25T04:27:20.830Z,67.07
2022-07-25T04:29:50.902Z,66.80
2022-07-25T04:32:25.093Z,66.82
2022-07-25T04:34:56.701Z,66.55
2022-07-25T04:37:26.531Z,66.58
2022-07-25T04:40:00.646Z,66.43
2022-07-25T04:42:30.844Z,66.32
2022-07-25T04:45:05.300Z,66.07
2022-07-25T04:47:34.569Z,66.11
2022-07-25T04:50:05.058Z,65.71
2022-07-25T04:52:37.158Z,65.44
2022-07-25T04:55:06.167Z,65.54
2022-07-25T04:57:34.399Z,65.59
2022-07-25T05:00:05.357Z,65.55
2022-07-25T05:02:35.185Z,65.48
2022-07-25T05:05:06.582Z,65.52
2022-07-25T05:07:37.734Z,65.36
2022-07-25T05:10:08.738Z,65.06
2022-07-25T05:12:38.802Z,64.95
2022-07-25T05:15:08.026Z,65.05
2022-07-25T05:17:41.748Z,64.85
2022-07-25T05:20:15.341Z,64.79
2022-07-25T05:22:44.931Z,64.74
2022-07-25T05:25:18.308Z,64.59
2022-07-25T05:27:48.236Z,64.79
2022-07-25T05:30:16.719Z,64.75
2022-07-25T05:32:48.237Z,64.86
2022-07-25T05:35:22.714Z,64.97
2022-07-25T05:37:59.956Z,65.14
2022-07-25T05:40:33.117Z,64.37
2022-07-25T05:43:03.784Z,64.46
2022-07-25T05:45:32.480Z,64.87
2022-07-25T05:48:04.162Z,65.49
2022-07-25T05:50:32.923Z,65.75
2022-07-25T05:53:02.640Z,65.95
2022-07-25T05:55:40.292Z,66.37
2022-07-25T05:58:13.013Z,66.37
2022-07-25T06:00:45.530Z,66.96
2022-07-25T06:03:25.271Z,67.08
2022-07-25T06:05:57.842Z,67.07
2022-07-25T06:08:31.138Z,67.34
2022-07-25T06:11:06.153Z,66.78
2022-07-25T06:13:44.348Z,67.02
2022-07-25T06:16:13.044Z,66.80
2022-07-25T06:18:44.958Z,66.67
2022-07-25T06:21:15.070Z,66.83
2022-07-25T06:23:47.920Z,66.37
2022-07-25T06:26:17.560Z,66.19
2022-07-25T06:28:46.286Z,66.22
2022-07-25T06:31:15.336Z,66.02
2022-07-25T06:33:45.628Z,66.08
2022-07-25T06:36:16.820Z,65.72
2022-07-25T06:38:48.155Z,65.86
2022-07-25T06:41:19.099Z,65.61
2022-07-25T06:43:48.769Z,65.84
2022-07-25T06:46:17.248Z,65.90
2022-07-25T06:48:50.750Z,65.71
2022-07-25T06:51:22.953Z,65.71
2022-07-25T06:53:55.388Z,65.77
2022-07-25T06:56:24.934Z,65.78
2022-07-25T06:58:56.488Z,65.63
2022-07-25T07:01:27.898Z,65.44
2022-07-25T07:03:57.154Z,65.21
2022-07-25T07:06:40.119Z,64.99
2022-07-25T07:09:21.087Z,64.88
2022-07-25T07:11:52.818Z,64.62
2022-07-25T07:14:21.063Z,64.98
2022-07-25T07:16:54.421Z,64.79
2022-07-25T07:19:30.344Z,65.20
2022-07-25T07:22:01.652Z,64.92
2022-07-25T07:24:34.522Z,65.14
2022-07-25T07:27:03.471Z,64.83
2022-07-25T07:29:36.316Z,64.64
2022-07-25T07:32:12.674Z,64.60
2022-07-25T07:34:44.218Z,64.19
2022-07-25T07:37:18.968Z,63.97
2022-07-25T07:39:53.616Z,63.55
2022-07-25T07:42:23.437Z,63.52
2022-07-25T07:44:51.988Z,63.64
2022-07-25T07:47:25.869Z,63.30
2022-07-25T07:49:58.994Z,63.73
2022-07-25T07:52:31.204Z,63.40
2022-07-25T07:55:28.186Z,63.61
2022-07-25T07:58:23.404Z,62.58
2022-07-25T08:00:55.452Z,62.93
2022-07-25T08:03:27.000Z,62.89
2022-07-25T08:06:04.272Z,62.07
2022-07-25T08:08:45.659Z,61.48
2022-07-25T08:12:13.654Z,61.14
2022-07-25T08:15:02.796Z,61.03
2022-07-25T08:17:48.164Z,60.80
2022-07-25T08:20:38.027Z,61.31
2022-07-25T08:23:34.577Z,60.98
2022-07-25T08:26:09.347Z,61.37
2022-07-25T08:29:27.792Z,60.86
2022-07-25T08:32:12.733Z,60.78
2022-07-25T08:34:54.153Z,60.58
2022-07-25T08:37:45.542Z,59.96
2022-07-25T08:43:44.492Z,59.49
2022-07-25T08:49:54.634Z,59.28
2022-07-25T08:52:38.343Z,58.87
2022-07-25T08:58:28.572Z,57.92
2022-07-25T09:01:19.065Z,58.26
2022-07-25T09:03:57.800Z,57.92
2022-07-25T09:06:54.076Z,57.59
2022-07-25T09:09:50.052Z,57.64
2022-07-25T09:12:35.025Z,57.42
2022-07-25T09:19:03.970Z,57.55
2022-07-25T09:21:52.875Z,57.61
2022-07-25T09:24:57.895Z,57.78
2022-07-25T09:33:24.240Z,57.71
2022-07-25T09:36:04.953Z,57.62
2022-07-25T09:39:17.024Z,57.33
2022-07-25T09:41:59.139Z,57.28
2022-07-25T09:44:39.571Z,57.07
2022-07-25T09:47:42.221Z,57.53
2022-07-25T09:50:47.343Z,57.45
2022-07-25T09:56:58.003Z,58.73
2022-07-25T10:04:01.486Z,58.89
2022-07-25T10:13:28.233Z,58.04
2022-07-25T10:23:30.799Z,59.35
2022-07-25T10:29:21.439Z,61.38
2022-07-25T10:32:09.132Z,61.79
2022-07-25T10:35:30.588Z,62.47
2022-07-25T10:42:13.623Z,61.93
2022-07-25T10:52:22.737Z,60.48
2022-07-25T10:55:13.539Z,59.87
2022-07-25T10:58:58.609Z,59.74
2022-07-25T11:01:57.474Z,59.68
2022-07-25T11:08:31.523Z,58.40
2022-07-25T11:14:37.541Z,57.71
2022-07-25T11:27:51.311Z,55.29
2022-07-25T11:31:14.709Z,55.03
2022-07-25T11:34:01.196Z,55.39
2022-07-25T11:39:53.186Z,55.59
2022-07-25T11:53:07.733Z,55.01
2022-07-25T11:59:57.879Z,54.15
2022-07-25T12:05:49.426Z,53.71
2022-07-25T12:25:37.589Z,52.30
2022-07-25T12:28:34.082Z,52.24
2022-07-25T12:35:29.415Z,52.86
2022-07-25T12:38:07.377Z,52.16
2022-07-25T12:40:44.035Z,51.99
2022-07-25T12:46:52.844Z,50.83
2022-07-25T12:52:42.607Z,49.89
2022-07-25T12:56:01.362Z,48.96
2022-07-25T12:59:14.582Z,48.63
2022-07-25T13:01:47.700Z,47.78
2022-07-25T13:04:37.774Z,47.33
2022-07-25T13:13:57.290Z,45.28
2022-07-25T13:17:09.253Z,45.82
2022-07-25T13:20:35.455Z,45.83
2022-07-25T13:26:52.578Z,46.67
2022-07-25T13:35:55.443Z,48.08
2022-07-25T13:38:42.546Z,47.59
2022-07-25T13:44:46.160Z,47.06
2022-07-25T13:47:34.396Z,46.88
2022-07-25T13:50:46.318Z,47.43
2022-07-25T13:53:34.098Z,47.29
2022-07-25T13:56:41.449Z,46.34
2022-07-25T13:59:27.419Z,46.81
2022-07-25T14:02:34.352Z,46.77
2022-07-25T14:05:27.499Z,46.70
2022-07-25T14:08:13.160Z,45.84
2022-07-25T14:11:06.626Z,45.81
2022-07-25T14:14:00.450Z,44.58
2022-07-25T14:36:52.268Z,43.92
2022-07-25T14:44:49.610Z,43.00
2022-07-25T14:47:55.890Z,42.50
2022-07-25T15:02:20.588Z,42.20
2022-07-25T15:17:56.923Z,42.28
2022-07-25T15:20:44.595Z,40.14
2022-07-25T15:28:08.257Z,39.98
2022-07-25T15:35:18.470Z,39.67
2022-07-25T15:42:30.395Z,40.84
2022-07-25T15:45:31.909Z,41.51
2022-07-25T15:51:58.761Z,41.01
2022-07-25T15:54:57.310Z,41.54
2022-07-25T15:57:48.724Z,41.63
2022-07-25T16:00:44.078Z,42.17
2022-07-25T16:04:00.247Z,42.47
2022-07-25T16:06:57.220Z,42.63
2022-07-25T16:12:47.500Z,44.08
2022-07-25T16:19:03.909Z,45.20
2022-07-25T16:24:54.841Z,45.73
2022-07-25T16:27:55.215Z,46.38
2022-07-25T16:30:52.908Z,46.32
2022-07-25T16:36:23.731Z,46.26
2022-07-25T16:39:08.899Z,45.49
2022-07-25T16:41:57.325Z,44.47
2022-07-25T16:45:01.991Z,44.91
2022-07-25T16:47:45.845Z,43.63
2022-07-25T16:50:16.174Z,42.34
2022-07-25T16:53:18.739Z,42.93
2022-07-25T16:55:56.019Z,41.57
2022-07-25T17:02:01.369Z,41.48
2022-07-25T17:05:06.099Z,41.12
2022-07-25T17:08:45.467Z,41.87
2022-07-25T17:17:42.401Z,46.05
2022-07-25T17:21:02.075Z,47.06
2022-07-25T17:24:25.749Z,47.50
2022-07-25T17:27:40.175Z,47.74
2022-07-25T17:30:10.442Z,48.66
2022-07-25T17:33:18.455Z,48.75
2022-07-25T17:35:56.933Z,49.07
2022-07-25T17:38:32.944Z,49.14
2022-07-25T17:45:35.627Z,49.02
2022-07-25T17:48:17.540Z,48.91
2022-07-25T17:51:21.715Z,49.36
2022-07-25T17:54:39.800Z,49.46
2022-07-25T17:57:16.471Z,49.63
2022-07-25T18:00:18.835Z,49.60
2022-07-25T18:03:20.420Z,49.88
2022-07-25T18:05:54.543Z,49.70
2022-07-25T18:09:04.736Z,50.11
2022-07-25T18:12:24.864Z,50.09
2022-07-25T18:15:54.467Z,49.97
2022-07-25T18:18:32.359Z,50.31
2022-07-25T18:21:18.952Z,50.82
2022-07-25T18:23:52.296Z,50.59
2022-07-25T18:26:47.175Z,50.45
2022-07-25T18:29:16.383Z,50.61
2022-07-25T18:31:47.767Z,50.25
2022-07-25T18:40:29.378Z,50.07
2022-07-25T18:43:03.044Z,49.99
2022-07-25T18:45:37.202Z,50.30
2022-07-25T18:48:14.289Z,50.66
2022-07-25T18:50:52.468Z,50.95
2022-07-25T18:53:47.970Z,51.29
2022-07-25T18:56:26.156Z,51.22
2022-07-25T18:58:55.690Z,51.33
2022-07-25T19:01:31.946Z,51.55
2022-07-25T19:07:05.971Z,51.76
2022-07-25T19:09:41.465Z,52.06
2022-07-25T19:12:41.483Z,52.32
2022-07-25T19:15:14.603Z,52.63
2022-07-25T19:18:03.540Z,52.18
2022-07-25T19:20:34.543Z,52.44
2022-07-25T19:23:13.063Z,52.24
2022-07-25T19:25:53.509Z,52.24
2022-07-25T19:28:27.353Z,52.48
2022-07-25T19:34:11.265Z,52.39
2022-07-25T19:37:31.195Z,53.01
2022-07-25T19:40:01.827Z,53.18
2022-07-25T19:42:35.495Z,53.41
2022-07-25T19:45:12.198Z,53.05
2022-07-25T19:51:08.641Z,53.14
2022-07-25T19:53:37.235Z,52.79
2022-07-25T19:59:30.347Z,53.02
2022-07-25T20:02:02.089Z,53.15
2022-07-25T20:04:30.970Z,53.16
2022-07-25T20:07:15.128Z,53.28
2022-07-25T20:09:56.117Z,53.20
2022-07-25T20:12:28.411Z,53.37
2022-07-25T20:15:17.641Z,53.56
2022-07-25T20:17:48.397Z,53.63
2022-07-25T20:20:57.406Z,53.84
2022-07-25T20:23:45.991Z,53.95
2022-07-25T20:26:23.068Z,53.41
2022-07-25T20:29:24.119Z,53.62
2022-07-25T20:31:58.391Z,53.41
2022-07-25T20:34:50.208Z,53.15
2022-07-25T20:37:31.920Z,53.08
2022-07-25T20:40:29.218Z,52.75
2022-07-25T20:42:59.199Z,52.61
2022-07-25T20:46:08.916Z,52.31
2022-07-25T20:49:04.332Z,52.20
2022-07-25T20:51:43.516Z,52.25
2022-07-25T20:54:14.520Z,52.08
2022-07-25T20:56:43.442Z,51.58
2022-07-25T20:59:12.711Z,51.51
2022-07-25T21:02:12.558Z,51.56
2022-07-25T21:04:43.665Z,51.54
2022-07-25T21:10:16.101Z,51.49
2022-07-25T21:12:49.424Z,51.19
2022-07-25T21:15:37.601Z,51.20
2022-07-25T21:18:50.617Z,51.09
2022-07-25T21:21:46.292Z,51.08
2022-07-25T21:27:36.185Z,50.80
2022-07-25T21:30:34.406Z,50.60
2022-07-25T21:33:25.002Z,50.89
2022-07-25T21:36:13.859Z,51.03
2022-07-25T21:38:44.614Z,50.69
2022-07-25T21:44:33.997Z,50.63
2022-07-25T21:47:54.617Z,51.07
2022-07-25T21:50:49.365Z,50.61
2022-07-25T21:53:22.445Z,50.75
2022-07-25T21:55:58.180Z,50.81
2022-07-25T21:58:28.754Z,50.62
2022-07-25T22:00:58.964Z,50.34
2022-07-25T22:06:35.053Z,50.72
2022-07-25T22:09:08.628Z,50.83
2022-07-25T22:11:46.131Z,50.58
2022-07-25T22:14:43.041Z,50.79
2022-07-25T22:17:27.725Z,51.42
2022-07-25T22:21:04.400Z,51.56
2022-07-25T22:23:48.320Z,51.85
2022-07-25T22:26:25.782Z,52.00
2022-07-25T22:29:08.358Z,51.72
2022-07-25T22:32:12.102Z,52.08
2022-07-25T22:34:41.018Z,52.55
2022-07-25T22:37:12.629Z,52.46
2022-07-25T22:46:28.039Z,52.82
2022-07-25T22:49:04.080Z,51.94
2022-07-25T22:51:52.771Z,51.44
2022-07-25T22:54:24.495Z,51.55
2022-07-25T23:00:33.264Z,50.98
2022-07-25T23:03:12.977Z,50.89
2022-07-25T23:05:43.918Z,51.17
2022-07-25T23:08:13.738Z,50.74
2022-07-25T23:10:54.354Z,50.51
2022-07-25T23:13:25.280Z,50.31
2022-07-25T23:15:59.815Z,50.64
2022-07-25T23:18:52.251Z,50.61
2022-07-25T23:21:24.202Z,50.33
2022-07-25T23:25:16.444Z,49.72
2022-07-25T23:28:13.692Z,49.52
2022-07-25T23:30:46.638Z,49.47
2022-07-25T23:33:21.914Z,49.21
2022-07-25T23:36:00.463Z,49.22
2022-07-25T23:38:41.689Z,49.32
2022-07-25T23:41:10.965Z,48.91
2022-07-25T23:43:57.603Z,49.13
2022-07-25T23:52:44.562Z,49.19
2022-07-25T23:55:48.946Z,49.37
2022-07-25T23:58:25.793Z,49.33
